Time;durP1;ratioP1;P1;durP2;ratioP2;P2;SDS_P1;SDS_P2;PMS_P1;PMS_P2;Temp;Humidity;BMP_temperature;BMP_pressure;BME280_temperature;BME280_humidity;BME280_pressure;Samples;Min_cycle;Max_cycle;Signal;HPM_P1;HPM_P2
2022/04/28 00:00:54;;;;;;;;;;;;;;;;;;5082130;28;27847;-95
2022/04/28 00:03:19;;;;;;;;;;;;;;;;;;5082952;28;29784;-95
2022/04/28 00:05:44;;;;;;;;;;;;;;;;;;5084014;28;28487;-96
2022/04/28 00:08:09;;;;;;;;;;;;;;;;;;5088357;28;27845;-96
2022/04/28 00:10:35;;;;;;;;;;;;;;;;;;5089147;28;27881;-95
2022/04/28 00:13:00;;;;;;;;;;;;;;;;;;5089558;28;29344;-96
2022/04/28 00:15:26;;;;;;;;;;;;;;;;;;5090298;28;28383;-96
2022/04/28 00:17:51;;;;;;;;;;;;;;;;;;5088091;28;28340;-96
2022/04/28 00:20:16;;;;;;;;;;;;;;;;;;5089658;28;27823;-96
2022/04/28 00:22:41;;;;;;;;;;;;;;;;;;5092153;28;28138;-96
2022/04/28 00:25:06;;;;;;;;;;;;;;;;;;5102446;28;27791;-95
2022/04/28 00:27:35;;;;;;;;;;;;;;;;;;5069181;28;27796;-95
2022/04/28 00:30:01;;;;;;;;;;;;;;;;;;5068578;28;28143;-95
2022/04/28 00:32:32;;;;;;;;;;;;;;;;;;5072839;28;28215;-95
2022/04/28 00:35:09;;;;;;;;;;;;;;;;;;5066490;28;28364;-96
2022/04/28 00:37:43;;;;;;;;;;;;;;;;;;5074006;28;27829;-96
2022/04/28 00:40:10;;;;;;;;;;;;;;;;;;5108596;28;27835;-95
2022/04/28 00:42:36;;;;;;;;;;;;;;;;;;5109279;28;28276;-96
2022/04/28 00:45:01;;;;;;;;;;;;;;;;;;5109389;28;27910;-95
2022/04/28 00:50:38;;;;;;;;;;;;;;;;;;5108112;28;27899;-95
2022/04/28 00:52:56;;;;;;;;;;;;;;;;;;5107837;28;28240;-96
2022/04/28 00:55:27;;;;;;;;;;;;;;;;;;5107245;28;28331;-96
2022/04/28 00:57:52;;;;;;;;;;;;;;;;;;5106507;28;27755;-95
2022/04/28 01:00:23;;;;;;;;;;;;;;;;;;5105506;28;28682;-96
2022/04/28 01:02:55;;;;;;;;;;;;;;;;;;5107718;28;28279;-95
2022/04/28 01:05:20;;;;;;;;;;;;;;;;;;5105731;28;27701;-95
2022/04/28 01:07:48;;;;;;;;;;;;;;;;;;5108045;28;27625;-96
2022/04/28 01:10:24;;;;;;;;;;;;;;;;;;5106002;28;27950;-96
2022/04/28 01:12:50;;;;;;;;;;;;;;;;;;5103770;28;29839;-96
2022/04/28 01:15:15;;;;;;;;;;;;;;;;;;5105350;28;28352;-96
2022/04/28 01:17:42;;;;;;;;;;;;;;;;;;5105195;28;27746;-96
2022/04/28 01:20:07;;;;;;;;;;;;;;;;;;5103941;28;27891;-96
2022/04/28 01:22:33;;;;;;;;;;;;;;;;;;5103254;28;30226;-96
2022/04/28 01:25:00;;;;;;;;;;;;;;;;;;5103788;28;27858;-96
2022/04/28 01:27:26;;;;;;;;;;;;;;;;;;5100389;28;27673;-96
2022/04/28 01:29:52;;;;;;;;;;;;;;;;;;5101267;28;27876;-96
2022/04/28 01:32:17;;;;;;;;;;;;;;;;;;5101819;28;28506;-94
2022/04/28 01:34:45;;;;;;;;;;;;;;;;;;5101919;28;27796;-96
2022/04/28 01:37:13;;;;;;;;;;;;;;;;;;5098573;28;27795;-96
2022/04/28 01:39:39;;;;;;;;;;;;;;;;;;5098121;28;27891;-96
2022/04/28 01:42:08;;;;;;;;;;;;;;;;;;5081142;28;29685;-96
2022/04/28 01:44:33;;;;;;;;;;;;;;;;;;5083928;28;28473;-96
2022/04/28 01:47:00;;;;;;;;;;;;;;;;;;5083918;28;27711;-96
2022/04/28 01:49:25;;;;;;;;;;;;;;;;;;5081940;28;28024;-96
2022/04/28 01:57:18;;;;;;;;;;;;;;;;;;5099007;28;27867;-96
2022/04/28 01:59:43;;;;;;;;;;;;;;;;;;5081503;28;27899;-95
2022/04/28 02:02:10;;;;;;;;;;;;;;;;;;5099552;28;28357;-96
2022/04/28 02:04:35;;;;;;;;;;;;;;;;;;5100100;28;28214;-96
2022/04/28 02:07:01;;;;;;;;;;;;;;;;;;5115917;28;27771;-96
2022/04/28 02:09:26;;;;;;;;;;;;;;;;;;5100059;28;27837;-96
2022/04/28 02:11:52;;;;;;;;;;;;;;;;;;5097232;28;30705;-96
2022/04/28 02:14:17;;;;;;;;;;;;;;;;;;5080368;28;28440;-96
2022/04/28 02:16:43;;;;;;;;;;;;;;;;;;5082520;28;27877;-95
2022/04/28 02:19:08;;;;;;;;;;;;;;;;;;5098517;28;27870;-95
2022/04/28 02:21:33;;;;;;;;;;;;;;;;;;5094131;28;29979;-96
2022/04/28 02:23:58;;;;;;;;;;;;;;;;;;5094121;28;28478;-95
2022/04/28 02:26:23;;;;;;;;;;;;;;;;;;5093219;28;27800;-95
2022/04/28 02:28:49;;;;;;;;;;;;;;;;;;5094999;28;27796;-95
2022/04/28 02:31:14;;;;;;;;;;;;;;;;;;5091427;28;28632;-96
2022/04/28 02:33:39;;;;;;;;;;;;;;;;;;5087643;28;28204;-96
2022/04/28 02:36:05;;;;;;;;;;;;;;;;;;5083365;28;27814;-96
2022/04/28 02:38:30;;;;;;;;;;;;;;;;;;5095507;28;27919;-95
2022/04/28 02:40:55;;;;;;;;;;;;;;;;;;5097848;28;29896;-96
2022/04/28 02:43:20;;;;;;;;;;;;;;;;;;5096949;28;28694;-96
2022/04/28 02:45:46;;;;;;;;;;;;;;;;;;5095755;28;27703;-96
2022/04/28 02:48:11;;;;;;;;;;;;;;;;;;5097270;28;27886;-95
2022/04/28 02:50:36;;;;;;;;;;;;;;;;;;5095586;28;29517;-96
2022/04/28 02:53:02;;;;;;;;;;;;;;;;;;5094328;28;28361;-95
2022/04/28 02:55:27;;;;;;;;;;;;;;;;;;5095138;28;27708;-95
2022/04/28 02:57:52;;;;;;;;;;;;;;;;;;5093442;28;28517;-95
2022/04/28 03:00:17;;;;;;;;;;;;;;;;;;5092914;28;29988;-95
2022/04/28 03:02:42;;;;;;;;;;;;;;;;;;5093182;28;29311;-94
2022/04/28 03:05:07;;;;;;;;;;;;;;;;;;5092515;28;28330;-96
2022/04/28 03:13:00;;;;;;;;;;;;;;;;;;5095831;28;27689;-96
2022/04/28 03:15:26;;;;;;;;;;;;;;;;;;5075993;28;27816;-95
2022/04/28 03:17:51;;;;;;;;;;;;;;;;;;5081009;28;27903;-96
2022/04/28 03:20:16;;;;;;;;;;;;;;;;;;5075516;28;31181;-96
2022/04/28 03:22:43;;;;;;;;;;;;;;;;;;5096540;28;27630;-95
2022/04/28 03:25:10;;;;;;;;;;;;;;;;;;5098831;28;28288;-96
2022/04/28 03:27:38;;;;;;;;;;;;;;;;;;5078540;28;27903;-95
2022/04/28 03:30:06;;;;;;;;;;;;;;;;;;5077627;28;30065;-96
2022/04/28 03:32:31;;;;;;;;;;;;;;;;;;5078458;28;28301;-96
2022/04/28 03:34:56;;;;;;;;;;;;;;;;;;5079274;28;28285;-95
2022/04/28 03:37:22;;;;;;;;;;;;;;;;;;5097477;28;27951;-95
2022/04/28 03:39:47;;;;;;;;;;;;;;;;;;5078200;28;30006;-96
2022/04/28 03:42:17;;;;;;;;;;;;;;;;;;5076471;28;28270;-95
2022/04/28 03:44:42;;;;;;;;;;;;;;;;;;5074716;28;27744;-95
2022/04/28 03:47:08;;;;;;;;;;;;;;;;;;5071961;28;27988;-96
2022/04/28 03:49:33;;;;;;;;;;;;;;;;;;5078109;28;29685;-95
2022/04/28 03:51:58;;;;;;;;;;;;;;;;;;5075142;28;27765;-96
2022/04/28 03:54:30;;;;;;;;;;;;;;;;;;5080615;28;27799;-96
2022/04/28 03:57:00;;;;;;;;;;;;;;;;;;5076938;28;27922;-96
2022/04/28 03:59:25;;;;;;;;;;;;;;;;;;5077322;28;29762;-96
2022/04/28 04:01:52;;;;;;;;;;;;;;;;;;5056755;28;27713;-96
2022/04/28 04:04:17;;;;;;;;;;;;;;;;;;5067144;28;27859;-94
2022/04/28 04:06:42;;;;;;;;;;;;;;;;;;5055870;28;27835;-94
2022/04/28 04:09:08;;;;;;;;;;;;;;;;;;5057913;28;29876;-95
2022/04/28 04:11:33;;;;;;;;;;;;;;;;;;5066754;28;28516;-95
2022/04/28 04:14:01;;;;;;;;;;;;;;;;;;5070595;28;27841;-96
2022/04/28 04:16:26;;;;;;;;;;;;;;;;;;5056777;28;27828;-95
2022/04/28 04:18:54;;;;;;;;;;;;;;;;;;5072292;28;29631;-96
2022/04/28 04:21:20;;;;;;;;;;;;;;;;;;5071745;28;28569;-95
2022/04/28 04:23:46;;;;;;;;;;;;;;;;;;5071817;28;27895;-96
2022/04/28 04:26:11;;;;;;;;;;;;;;;;;;5072874;28;28277;-96
2022/04/28 04:28:36;;;;;;;;;;;;;;;;;;5065159;28;30300;-95
2022/04/28 04:33:45;;;;;;;;;;;;;;;;;;5057784;28;27819;-95
2022/04/28 04:36:13;;;;;;;;;;;;;;;;;;5057552;28;27931;-96
2022/04/28 04:38:41;;;;;;;;;;;;;;;;;;5078213;28;28333;-96
2022/04/28 04:41:10;;;;;;;;;;;;;;;;;;5096658;28;28089;-96
2022/04/28 04:43:35;;;;;;;;;;;;;;;;;;5095205;28;27806;-95
2022/04/28 04:46:00;;;;;;;;;;;;;;;;;;5088671;28;28273;-96
2022/04/28 04:48:25;;;;;;;;;;;;;;;;;;5082098;28;29788;-94
2022/04/28 04:50:52;;;;;;;;;;;;;;;;;;5065958;28;28306;-95
2022/04/28 04:53:17;;;;;;;;;;;;;;;;;;5075897;28;27880;-95
2022/04/28 04:55:42;;;;;;;;;;;;;;;;;;5087160;28;28279;-96
2022/04/28 04:58:07;;;;;;;;;;;;;;;;;;5089296;28;30007;-95
2022/04/28 05:00:33;;;;;;;;;;;;;;;;;;5094065;28;28389;-96
2022/04/28 05:02:58;;;;;;;;;;;;;;;;;;5085800;28;28410;-96
2022/04/28 05:05:23;;;;;;;;;;;;;;;;;;5086862;28;27902;-95
2022/04/28 05:07:48;;;;;;;;;;;;;;;;;;5094367;28;29060;-95
2022/04/28 05:10:19;;;;;;;;;;;;;;;;;;5104070;28;27783;-96
2022/04/28 05:12:53;;;;;;;;;;;;;;;;;;5099448;28;28229;-95
2022/04/28 05:15:18;;;;;;;;;;;;;;;;;;5095544;28;27911;-95
2022/04/28 05:17:44;;;;;;;;;;;;;;;;;;5095656;28;28594;-95
2022/04/28 05:20:09;;;;;;;;;;;;;;;;;;5069542;28;28325;-95
2022/04/28 05:22:34;;;;;;;;;;;;;;;;;;5066435;28;27852;-95
2022/04/28 05:24:59;;;;;;;;;;;;;;;;;;5066495;28;28398;-95
2022/04/28 05:27:24;;;;;;;;;;;;;;;;;;5083273;28;29975;-96
2022/04/28 05:29:49;;;;;;;;;;;;;;;;;;5071669;28;28963;-96
2022/04/28 05:32:14;;;;;;;;;;;;;;;;;;5071037;28;28389;-96
2022/04/28 05:34:39;;;;;;;;;;;;;;;;;;5076508;28;27833;-95
2022/04/28 05:37:04;;;;;;;;;;;;;;;;;;5073841;28;29503;-96
2022/04/28 05:39:33;;;;;;;;;;;;;;;;;;5081873;28;28526;-96
2022/04/28 05:42:01;;;;;;;;;;;;;;;;;;5079719;28;28365;-96
2022/04/28 05:47:26;;;;;;;;;;;;;;;;;;5104686;27;27932;-96
2022/04/28 05:50:11;;;;;;;;;;;;;;;;;;5102767;28;27685;-96
2022/04/28 05:55:21;;;;;;;;;;;;;;;;;;5101477;28;27674;-95
2022/04/28 05:57:50;;;;;;;;;;;;;;;;;;5100654;28;28493;-96
2022/04/28 06:00:15;;;;;;;;;;;;;;;;;;5095396;28;28654;-93
2022/04/28 06:02:41;;;;;;;;;;;;;;;;;;5082889;28;28399;-94
2022/04/28 06:05:06;;;;;;;;;;;;;;;;;;5079158;28;28332;-91
2022/04/28 06:07:31;;;;;;;;;;;;;;;;;;5077494;28;28351;-92
2022/04/28 06:09:57;;;;;;;;;;;;;;;;;;5077775;28;28760;-86
2022/04/28 06:12:24;;;;;;;;;;;;;;;;;;5077953;28;28407;-89
2022/04/28 06:14:49;;;;;;;;;;;;;;;;;;5078517;28;28331;-88
2022/04/28 06:17:14;;;;;;;;;;;;;;;;;;5076569;28;28300;-90
2022/04/28 06:19:39;;;;;;;;;;;;;;;;;;5061320;28;28535;-88
2022/04/28 06:22:04;;;;;;;;;;;;;;;;;;5079254;28;28284;-92
2022/04/28 06:24:29;;;;;;;;;;;;;;;;;;5061368;28;28342;-87
2022/04/28 06:26:55;;;;;;;;;;;;;;;;;;5077468;28;28202;-86
2022/04/28 06:29:20;;;;;;;;;;;;;;;;;;5086047;28;27798;-91
2022/04/28 06:31:45;;;;;;;;;;;;;;;;;;5079754;28;28493;-93
2022/04/28 06:34:10;;;;;;;;;;;;;;;;;;5074476;28;28618;-90
2022/04/28 06:36:35;;;;;;;;;;;;;;;;;;5073618;28;29994;-89
2022/04/28 06:39:02;;;;;;;;;;;;;;;;;;5077059;28;28246;-85
2022/04/28 06:41:27;;;;;;;;;;;;;;;;;;5078557;28;27839;-92
2022/04/28 06:43:52;;;;;;;;;;;;;;;;;;5077609;28;28528;-90
2022/04/28 06:46:17;;;;;;;;;;;;;;;;;;5079352;28;28421;-92
2022/04/28 06:48:42;;;;;;;;;;;;;;;;;;5080742;28;28305;-88
2022/04/28 06:51:08;;;;;;;;;;;;;;;;;;5077630;28;28292;-92
2022/04/28 06:53:33;;;;;;;;;;;;;;;;;;5079223;28;28238;-93
2022/04/28 06:55:58;;;;;;;;;;;;;;;;;;5080061;28;28345;-95
2022/04/28 06:58:23;;;;;;;;;;;;;;;;;;5079313;28;28296;-94
2022/04/28 07:00:49;;;;;;;;;;;;;;;;;;5078944;28;28303;-92
2022/04/28 07:03:14;;;;;;;;;;;;;;;;;;5080260;28;28558;-96
2022/04/28 07:05:39;;;;;;;;;;;;;;;;;;5062246;28;30037;-93
2022/04/28 07:08:04;;;;;;;;;;;;;;;;;;5080236;28;27843;-96
2022/04/28 07:10:29;;;;;;;;;;;;;;;;;;5079453;28;28421;-90
2022/04/28 07:12:54;;;;;;;;;;;;;;;;;;5061004;28;28421;-96
2022/04/28 07:15:19;;;;;;;;;;;;;;;;;;5087789;28;29246;-96
2022/04/28 07:17:45;;;;;;;;;;;;;;;;;;5092188;28;27823;-95
2022/04/28 07:20:10;;;;;;;;;;;;;;;;;;5092753;28;27838;-96
2022/04/28 07:22:35;;;;;;;;;;;;;;;;;;5088361;28;27861;-95
2022/04/28 07:25:00;;;;;;;;;;;;;;;;;;5084891;28;29524;-96
2022/04/28 07:27:25;;;;;;;;;;;;;;;;;;5086085;28;27947;-96
2022/04/28 07:29:50;;;;;;;;;;;;;;;;;;5091365;28;27908;-95
2022/04/28 07:32:15;;;;;;;;;;;;;;;;;;5114518;28;28344;-96
2022/04/28 07:34:40;;;;;;;;;;;;;;;;;;5094865;28;28220;-96
2022/04/28 07:37:05;;;;;;;;;;;;;;;;;;5094413;28;27822;-95
2022/04/28 07:39:31;;;;;;;;;;;;;;;;;;5095036;28;27823;-96
2022/04/28 07:41:56;;;;;;;;;;;;;;;;;;5086648;28;28403;-95
2022/04/28 07:44:21;;;;;;;;;;;;;;;;;;5078119;28;28577;-87
2022/04/28 07:46:47;;;;;;;;;;;;;;;;;;5074772;28;28410;-89
2022/04/28 07:49:12;;;;;;;;;;;;;;;;;;5058386;28;28523;-92
2022/04/28 07:51:37;;;;;;;;;;;;;;;;;;5077077;28;28344;-90
2022/04/28 07:54:02;;;;;;;;;;;;;;;;;;5089447;28;28450;-91
2022/04/28 07:56:27;;;;;;;;;;;;;;;;;;5085446;28;28344;-91
2022/04/28 07:58:53;;;;;;;;;;;;;;;;;;5074553;28;28396;-90
2022/04/28 08:01:18;;;;;;;;;;;;;;;;;;5075382;28;28257;-91
2022/04/28 08:03:43;;;;;;;;;;;;;;;;;;5075942;28;28499;-92
2022/04/28 08:06:11;;;;;;;;;;;;;;;;;;5074968;28;27819;-90
2022/04/28 08:08:36;;;;;;;;;;;;;;;;;;5074063;28;29368;-91
2022/04/28 08:11:03;;;;;;;;;;;;;;;;;;5075834;28;28332;-88
2022/04/28 08:13:28;;;;;;;;;;;;;;;;;;5060939;28;30181;-94
2022/04/28 08:15:54;;;;;;;;;;;;;;;;;;5089915;28;27796;-94
2022/04/28 08:18:19;;;;;;;;;;;;;;;;;;5081482;28;28414;-94
2022/04/28 08:20:44;;;;;;;;;;;;;;;;;;5078735;28;28543;-93
2022/04/28 08:23:09;;;;;;;;;;;;;;;;;;5078174;28;29542;-93
2022/04/28 08:25:35;;;;;;;;;;;;;;;;;;5078116;28;27851;-94
2022/04/28 08:28:00;;;;;;;;;;;;;;;;;;5081098;28;28430;-94
2022/04/28 08:30:25;;;;;;;;;;;;;;;;;;5092149;28;27893;-96
2022/04/28 08:32:50;;;;;;;;;;;;;;;;;;5083357;28;28948;-95
2022/04/28 08:35:15;;;;;;;;;;;;;;;;;;5082479;28;27817;-95
2022/04/28 08:37:40;;;;;;;;;;;;;;;;;;5081784;28;28399;-94
2022/04/28 08:40:05;;;;;;;;;;;;;;;;;;5081385;28;28447;-95
2022/04/28 08:42:30;;;;;;;;;;;;;;;;;;5097381;28;28509;-88
2022/04/28 08:44:55;;;;;;;;;;;;;;;;;;5100054;28;27849;-96
2022/04/28 08:47:21;;;;;;;;;;;;;;;;;;5090595;28;28486;-96
2022/04/28 08:49:46;;;;;;;;;;;;;;;;;;5078452;28;28451;-95
2022/04/28 08:52:11;;;;;;;;;;;;;;;;;;5092495;28;28538;-96
2022/04/28 08:54:36;;;;;;;;;;;;;;;;;;5069464;28;28513;-95
2022/04/28 08:57:01;;;;;;;;;;;;;;;;;;5067668;28;28501;-92
2022/04/28 08:59:26;;;;;;;;;;;;;;;;;;5083908;28;28541;-95
2022/04/28 09:01:52;;;;;;;;;;;;;;;;;;5082074;28;28519;-95
2022/04/28 09:04:22;;;;;;;;;;;;;;;;;;5064075;28;29215;-95
2022/04/28 09:06:47;;;;;;;;;;;;;;;;;;5063483;28;28269;-94
2022/04/28 09:09:12;;;;;;;;;;;;;;;;;;5081005;28;28310;-94
2022/04/28 09:11:39;;;;;;;;;;;;;;;;;;5062289;28;29802;-92
2022/04/28 09:14:14;;;;;;;;;;;;;;;;;;5066518;28;28680;-96
2022/04/28 09:16:40;;;;;;;;;;;;;;;;;;5066192;28;28561;-95
2022/04/28 09:19:05;;;;;;;;;;;;;;;;;;5063829;28;27950;-85
2022/04/28 09:21:31;;;;;;;;;;;;;;;;;;5077499;28;29353;-87
2022/04/28 09:23:56;;;;;;;;;;;;;;;;;;5077600;28;28381;-94
2022/04/28 09:26:21;;;;;;;;;;;;;;;;;;5078753;28;28445;-93
2022/04/28 09:28:46;;;;;;;;;;;;;;;;;;5077273;28;28434;-86
2022/04/28 09:31:11;;;;;;;;;;;;;;;;;;5076415;28;28533;-86
2022/04/28 09:33:36;;;;;;;;;;;;;;;;;;5080153;28;28500;-89
2022/04/28 09:36:04;;;;;;;;;;;;;;;;;;5090023;28;28395;-96
2022/04/28 09:38:35;;;;;;;;;;;;;;;;;;5101145;28;27828;-96
2022/04/28 09:43:46;;;;;;;;;;;;;;;;;;5097715;28;27822;-96
2022/04/28 09:46:11;;;;;;;;;;;;;;;;;;5104109;27;27859;-96
2022/04/28 09:48:37;;;;;;;;;;;;;;;;;;5082051;28;27927;-96
2022/04/28 09:51:04;;;;;;;;;;;;;;;;;;5075356;28;30976;-96
2022/04/28 09:53:29;;;;;;;;;;;;;;;;;;5078851;28;28536;-96
2022/04/28 09:55:54;;;;;;;;;;;;;;;;;;5081252;28;27785;-96
2022/04/28 09:58:20;;;;;;;;;;;;;;;;;;5084342;28;27916;-96
2022/04/28 10:00:45;;;;;;;;;;;;;;;;;;5095422;28;30142;-94
2022/04/28 10:03:11;;;;;;;;;;;;;;;;;;5089522;28;28168;-95
2022/04/28 10:05:37;;;;;;;;;;;;;;;;;;5095224;28;27842;-95
2022/04/28 10:08:03;;;;;;;;;;;;;;;;;;5099792;28;27911;-95
2022/04/28 10:10:28;;;;;;;;;;;;;;;;;;5104283;28;28478;-96
2022/04/28 10:12:53;;;;;;;;;;;;;;;;;;5072962;28;28340;-95
2022/04/28 10:15:19;;;;;;;;;;;;;;;;;;5069962;28;28318;-96
2022/04/28 10:17:44;;;;;;;;;;;;;;;;;;5077034;28;28329;-95
2022/04/28 10:20:09;;;;;;;;;;;;;;;;;;5080344;28;29614;-95
2022/04/28 10:22:34;;;;;;;;;;;;;;;;;;5096833;28;28311;-96
2022/04/28 10:33:11;;;;;;;;;;;;;;;;;;5098916;28;27723;-95
2022/04/28 10:35:36;;;;;;;;;;;;;;;;;;5078997;28;28421;-95
2022/04/28 10:38:02;;;;;;;;;;;;;;;;;;5065189;28;27911;-96
2022/04/28 10:40:30;;;;;;;;;;;;;;;;;;5078556;28;29616;-95
2022/04/28 10:42:55;;;;;;;;;;;;;;;;;;5098323;28;28384;-95
2022/04/28 10:45:22;;;;;;;;;;;;;;;;;;5106279;28;27836;-96
2022/04/28 10:47:48;;;;;;;;;;;;;;;;;;5074181;28;27984;-89
2022/04/28 10:50:13;;;;;;;;;;;;;;;;;;5081055;28;28902;-96
2022/04/28 10:52:38;;;;;;;;;;;;;;;;;;5079602;28;29703;-95
2022/04/28 10:55:05;;;;;;;;;;;;;;;;;;5095792;28;27741;-96
2022/04/28 10:57:32;;;;;;;;;;;;;;;;;;5096030;28;27967;-95
2022/04/28 10:59:58;;;;;;;;;;;;;;;;;;5093656;28;28243;-96
2022/04/28 11:02:23;;;;;;;;;;;;;;;;;;5092595;28;28253;-95
2022/04/28 11:04:48;;;;;;;;;;;;;;;;;;5096431;28;27803;-95
2022/04/28 11:07:15;;;;;;;;;;;;;;;;;;5092593;28;28314;-96
2022/04/28 11:09:41;;;;;;;;;;;;;;;;;;5099277;28;28755;-96
2022/04/28 11:12:06;;;;;;;;;;;;;;;;;;5085336;28;27797;-96
2022/04/28 11:14:32;;;;;;;;;;;;;;;;;;5102563;28;27765;-96
2022/04/28 11:17:07;;;;;;;;;;;;;;;;;;5084751;28;28391;-96
2022/04/28 11:19:35;;;;;;;;;;;;;;;;;;5100370;28;28604;-96
2022/04/28 11:22:00;;;;;;;;;;;;;;;;;;5084501;28;28596;-95
2022/04/28 11:24:28;;;;;;;;;;;;;;;;;;5084187;28;27776;-96
2022/04/28 11:26:55;;;;;;;;;;;;;;;;;;5098437;28;27964;-96
2022/04/28 11:29:31;;;;;;;;;;;;;;;;;;5085124;28;28081;-96
2022/04/28 11:31:57;;;;;;;;;;;;;;;;;;5086051;28;28412;-96
2022/04/28 11:34:34;;;;;;;;;;;;;;;;;;5067447;28;27849;-96
2022/04/28 11:37:00;;;;;;;;;;;;;;;;;;5084467;28;28006;-96
2022/04/28 11:39:27;;;;;;;;;;;;;;;;;;5082362;28;28737;-96
2022/04/28 11:41:58;;;;;;;;;;;;;;;;;;5081056;28;27800;-96
2022/04/28 11:44:26;;;;;;;;;;;;;;;;;;5063715;28;27840;-96
2022/04/28 11:46:52;;;;;;;;;;;;;;;;;;5077187;28;27891;-96
2022/04/28 11:49:17;;;;;;;;;;;;;;;;;;5079091;28;30183;-96
2022/04/28 11:51:42;;;;;;;;;;;;;;;;;;5080261;28;28226;-95
2022/04/28 11:54:08;;;;;;;;;;;;;;;;;;5079838;28;27821;-96
2022/04/28 11:56:35;;;;;;;;;;;;;;;;;;5091602;28;27809;-96
2022/04/28 11:59:00;;;;;;;;;;;;;;;;;;5075594;28;29797;-96
2022/04/28 12:01:25;;;;;;;;;;;;;;;;;;5076303;28;28697;-96
2022/04/28 12:03:51;;;;;;;;;;;;;;;;;;5075750;28;28364;-96
2022/04/28 12:06:16;;;;;;;;;;;;;;;;;;5076147;28;27988;-96
2022/04/28 12:08:41;;;;;;;;;;;;;;;;;;5075975;28;28455;-96
2022/04/28 12:14:35;;;;;;;;;;;;;;;;;;5013146;28;27762;-95
2022/04/28 12:19:27;;;;;;;;;;;;;;;;;;5002612;28;27958;-94
2022/04/28 12:21:53;;;;;;;;;;;;;;;;;;4996052;28;28506;-92
2022/04/28 12:24:22;;;;;;;;;;;;;;;;;;4997379;28;28283;-84
2022/04/28 12:26:47;;;;;;;;;;;;;;;;;;4992676;28;28585;-85
2022/04/28 12:29:12;;;;;;;;;;;;;;;;;;4993077;28;28445;-85
2022/04/28 12:31:37;;;;;;;;;;;;;;;;;;4993619;28;28644;-88
2022/04/28 12:34:03;;;;;;;;;;;;;;;;;;4992978;28;28441;-85
2022/04/28 12:36:28;;;;;;;;;;;;;;;;;;4993133;28;28402;-84
2022/04/28 12:38:53;;;;;;;;;;;;;;;;;;4991867;28;28556;-85
2022/04/28 12:41:18;;;;;;;;;;;;;;;;;;4992228;28;28477;-85
2022/04/28 12:43:43;;;;;;;;;;;;;;;;;;4992525;28;28469;-87
2022/04/28 12:46:09;;;;;;;;;;;;;;;;;;4991819;28;28875;-84
2022/04/28 12:48:34;;;;;;;;;;;;;;;;;;4991125;28;29661;-89
2022/04/28 12:50:59;;;;;;;;;;;;;;;;;;5011799;28;28792;-91
2022/04/28 12:53:24;;;;;;;;;;;;;;;;;;5035859;28;28307;-91
2022/04/28 12:55:52;;;;;;;;;;;;;;;;;;5037048;28;28431;-95
2022/04/28 12:58:18;;;;;;;;;;;;;;;;;;5040623;28;28871;-91
2022/04/28 13:00:43;;;;;;;;;;;;;;;;;;5040338;28;28536;-94
2022/04/28 13:03:09;;;;;;;;;;;;;;;;;;5037562;28;28416;-86
2022/04/28 13:05:34;;;;;;;;;;;;;;;;;;5040914;28;28245;-89
2022/04/28 13:07:59;;;;;;;;;;;;;;;;;;5041416;28;28727;-89
2022/04/28 13:10:24;;;;;;;;;;;;;;;;;;5034876;28;28479;-93
2022/04/28 13:12:49;;;;;;;;;;;;;;;;;;5039218;28;28331;-90
2022/04/28 13:15:15;;;;;;;;;;;;;;;;;;5058564;28;28528;-95
2022/04/28 13:17:40;;;;;;;;;;;;;;;;;;5072170;28;29982;-94
2022/04/28 13:20:06;;;;;;;;;;;;;;;;;;5058546;28;29174;-95
2022/04/28 13:22:31;;;;;;;;;;;;;;;;;;5043814;28;28405;-96
2022/04/28 13:24:56;;;;;;;;;;;;;;;;;;5046194;28;27934;-93
2022/04/28 13:27:21;;;;;;;;;;;;;;;;;;5060986;28;29612;-94
2022/04/28 13:29:47;;;;;;;;;;;;;;;;;;5076755;28;28458;-95
2022/04/28 13:32:12;;;;;;;;;;;;;;;;;;5073092;28;28334;-86
2022/04/28 13:34:38;;;;;;;;;;;;;;;;;;5050483;28;28479;-92
2022/04/28 13:37:03;;;;;;;;;;;;;;;;;;5054427;28;28618;-95
2022/04/28 13:39:28;;;;;;;;;;;;;;;;;;5074743;28;28400;-95
2022/04/28 13:41:54;;;;;;;;;;;;;;;;;;5081360;28;28371;-94
2022/04/28 13:44:19;;;;;;;;;;;;;;;;;;5062990;28;28384;-94
2022/04/28 13:46:44;;;;;;;;;;;;;;;;;;5062982;28;29831;-94
2022/04/28 13:49:09;;;;;;;;;;;;;;;;;;5062371;28;29295;-94
2022/04/28 13:51:35;;;;;;;;;;;;;;;;;;5080033;28;27815;-95
2022/04/28 13:54:00;;;;;;;;;;;;;;;;;;5081074;28;28337;-94
2022/04/28 13:56:25;;;;;;;;;;;;;;;;;;5061620;28;29924;-90
2022/04/28 13:58:50;;;;;;;;;;;;;;;;;;5079856;28;28308;-94
2022/04/28 14:01:15;;;;;;;;;;;;;;;;;;5060737;28;28391;-93
2022/04/28 14:03:40;;;;;;;;;;;;;;;;;;5078606;28;28574;-93
2022/04/28 14:06:06;;;;;;;;;;;;;;;;;;5060715;28;30887;-92
2022/04/28 14:08:31;;;;;;;;;;;;;;;;;;5078203;28;28012;-89
2022/04/28 14:10:59;;;;;;;;;;;;;;;;;;5059973;28;28419;-94
2022/04/28 14:13:24;;;;;;;;;;;;;;;;;;5060534;28;28545;-93
2022/04/28 14:15:49;;;;;;;;;;;;;;;;;;5060378;28;29996;-94
2022/04/28 14:18:14;;;;;;;;;;;;;;;;;;5060304;28;29833;-95
2022/04/28 14:20:39;;;;;;;;;;;;;;;;;;5078877;28;28272;-94
2022/04/28 14:23:04;;;;;;;;;;;;;;;;;;5060921;28;28747;-94
2022/04/28 14:25:29;;;;;;;;;;;;;;;;;;5078625;28;28372;-94
2022/04/28 14:27:54;;;;;;;;;;;;;;;;;;5061013;28;28576;-94
2022/04/28 14:30:19;;;;;;;;;;;;;;;;;;5063327;28;28398;-94
2022/04/28 14:32:45;;;;;;;;;;;;;;;;;;5063079;28;28318;-94
2022/04/28 14:35:10;;;;;;;;;;;;;;;;;;5061239;28;29836;-94
2022/04/28 14:37:37;;;;;;;;;;;;;;;;;;5061187;28;28709;-94
2022/04/28 14:40:03;;;;;;;;;;;;;;;;;;5079824;28;28426;-94
2022/04/28 14:42:28;;;;;;;;;;;;;;;;;;5061270;28;28743;-95
2022/04/28 14:44:53;;;;;;;;;;;;;;;;;;5061612;28;29678;-92
2022/04/28 14:47:18;;;;;;;;;;;;;;;;;;5061152;28;28471;-91
2022/04/28 14:52:29;;;;;;;;;;;;;;;;;;5077686;28;28482;-88
2022/04/28 14:54:54;;;;;;;;;;;;;;;;;;5076883;28;29706;-93
2022/04/28 14:57:20;;;;;;;;;;;;;;;;;;5077101;28;28328;-93
2022/04/28 14:59:45;;;;;;;;;;;;;;;;;;5060736;28;28448;-93
2022/04/28 15:04:48;;;;;;;;;;;;;;;;;;5097396;22;28965;-96
2022/04/28 15:07:13;;;;;;;;;;;;;;;;;;5088901;28;28427;-96
2022/04/28 15:09:38;;;;;;;;;;;;;;;;;;5094808;28;28344;-96
2022/04/28 15:17:13;;;;;;;;;;;;;;;;;;5016756;25;28549;-96
2022/04/28 15:19:39;;;;;;;;;;;;;;;;;;5070617;28;28511;-95
2022/04/28 15:22:04;;;;;;;;;;;;;;;;;;5082924;28;27912;-95
2022/04/28 15:24:29;;;;;;;;;;;;;;;;;;5095753;28;28354;-96
2022/04/28 15:26:54;;;;;;;;;;;;;;;;;;5058055;28;28442;-80
2022/04/28 15:29:19;;;;;;;;;;;;;;;;;;5074754;28;28497;-92
2022/04/28 15:31:44;;;;;;;;;;;;;;;;;;5061288;28;28736;-92
2022/04/28 15:34:09;;;;;;;;;;;;;;;;;;5079543;28;28494;-94
2022/04/28 15:36:34;;;;;;;;;;;;;;;;;;5084531;28;27770;-94
2022/04/28 15:39:01;;;;;;;;;;;;;;;;;;5078240;28;28343;-86
2022/04/28 15:41:26;;;;;;;;;;;;;;;;;;5076713;28;28519;-86
2022/04/28 15:43:51;;;;;;;;;;;;;;;;;;5074570;28;29709;-87
2022/04/28 15:46:16;;;;;;;;;;;;;;;;;;5074915;28;28541;-91
2022/04/28 15:48:41;;;;;;;;;;;;;;;;;;5075582;28;28459;-89
2022/04/28 15:51:06;;;;;;;;;;;;;;;;;;5075393;28;28781;-90
2022/04/28 15:53:31;;;;;;;;;;;;;;;;;;5056471;28;28546;-88
2022/04/28 15:55:56;;;;;;;;;;;;;;;;;;5074512;28;28452;-94
2022/04/28 15:58:22;;;;;;;;;;;;;;;;;;5056608;28;28336;-86
2022/04/28 16:00:47;;;;;;;;;;;;;;;;;;5074715;28;28515;-89
2022/04/28 16:03:12;;;;;;;;;;;;;;;;;;5074283;28;29185;-89
2022/04/28 16:05:37;;;;;;;;;;;;;;;;;;5075295;28;28497;-90
2022/04/28 16:08:03;;;;;;;;;;;;;;;;;;5074667;28;28296;-87
2022/04/28 16:10:28;;;;;;;;;;;;;;;;;;5056657;28;28550;-91
2022/04/28 16:12:53;;;;;;;;;;;;;;;;;;5076291;28;29553;-93
2022/04/28 16:15:19;;;;;;;;;;;;;;;;;;5078685;28;28245;-93
2022/04/28 16:17:44;;;;;;;;;;;;;;;;;;5075968;28;28391;-90
2022/04/28 16:20:09;;;;;;;;;;;;;;;;;;5073194;28;28399;-90
2022/04/28 16:22:34;;;;;;;;;;;;;;;;;;5074046;28;29563;-90
2022/04/28 16:25:00;;;;;;;;;;;;;;;;;;5073987;28;28408;-91
2022/04/28 16:27:26;;;;;;;;;;;;;;;;;;5074556;28;28518;-91
2022/04/28 16:29:51;;;;;;;;;;;;;;;;;;5073865;28;28499;-91
2022/04/28 16:32:16;;;;;;;;;;;;;;;;;;5055869;28;28493;-91
2022/04/28 16:34:41;;;;;;;;;;;;;;;;;;5074146;28;31550;-92
2022/04/28 16:37:06;;;;;;;;;;;;;;;;;;5057463;28;28577;-91
2022/04/28 16:39:31;;;;;;;;;;;;;;;;;;5074715;28;28380;-88
2022/04/28 16:41:57;;;;;;;;;;;;;;;;;;5071427;28;29219;-92
2022/04/28 16:44:22;;;;;;;;;;;;;;;;;;5073606;28;28412;-84
2022/04/28 16:46:47;;;;;;;;;;;;;;;;;;5074375;28;28487;-90
2022/04/28 16:49:12;;;;;;;;;;;;;;;;;;5074555;28;28437;-91
2022/04/28 16:51:38;;;;;;;;;;;;;;;;;;5058421;28;30880;-87
2022/04/28 16:54:04;;;;;;;;;;;;;;;;;;5080667;28;28030;-92
2022/04/28 16:56:30;;;;;;;;;;;;;;;;;;5060093;28;28495;-91
2022/04/28 16:58:57;;;;;;;;;;;;;;;;;;5078309;28;29724;-92
2022/04/28 17:01:22;;;;;;;;;;;;;;;;;;5053035;28;28394;-87
2022/04/28 17:06:42;;;;;;;;;;;;;;;;;;4979286;28;28449;-88
2022/04/28 17:09:07;;;;;;;;;;;;;;;;;;4991375;28;28303;-86
2022/04/28 17:11:32;;;;;;;;;;;;;;;;;;5008559;28;29519;-86
2022/04/28 17:14:00;;;;;;;;;;;;;;;;;;4995431;28;28488;-86
2022/04/28 17:16:25;;;;;;;;;;;;;;;;;;4995704;28;28326;-87
2022/04/28 17:18:50;;;;;;;;;;;;;;;;;;4996004;28;28617;-86
2022/04/28 17:21:16;;;;;;;;;;;;;;;;;;5004444;28;29128;-86
2022/04/28 17:23:41;;;;;;;;;;;;;;;;;;5002778;28;28496;-86
2022/04/28 17:26:06;;;;;;;;;;;;;;;;;;4994958;28;28506;-83
2022/04/28 17:28:34;;;;;;;;;;;;;;;;;;4995422;28;29055;-89